sensor_id;sensor_type;location;lat;lon;timestamp;pressure;altitude;pressure_sealevel;temperature;humidity
76994;BME280;66749;47.406;18.822;2024-03-06T00:00:26;100249.78;;;7.37;91.44
76994;BME280;66749;47.406;18.822;2024-03-06T00:00:57;100251.59;;;7.35;91.47
76994;BME280;66749;47.406;18.822;2024-03-06T00:01:29;100245.56;;;7.34;91.24
76994;BME280;66749;47.406;18.822;2024-03-06T00:02:01;100249.69;;;7.38;91.42
76994;BME280;66749;47.406;18.822;2024-03-06T00:02:35;100245.41;;;7.37;91.23
76994;BME280;66749;47.406;18.822;2024-03-06T00:03:07;100253.13;;;7.39;91.07
76994;BME280;66749;47.406;18.822;2024-03-06T00:03:39;100254.88;;;7.38;91.08
76994;BME280;66749;47.406;18.822;2024-03-06T00:04:11;100252.28;;;7.38;90.92
76994;BME280;66749;47.406;18.822;2024-03-06T00:04:43;100249.63;;;7.40;91.00
76994;BME280;66749;47.406;18.822;2024-03-06T00:05:15;100247.88;;;7.40;90.67
76994;BME280;66749;47.406;18.822;2024-03-06T00:05:47;100257.22;;;7.44;90.41
76994;BME280;66749;47.406;18.822;2024-03-06T00:06:20;100250.47;;;7.40;90.18
76994;BME280;66749;47.406;18.822;2024-03-06T00:06:51;100254.78;;;7.41;90.22
76994;BME280;66749;47.406;18.822;2024-03-06T00:07:24;100259.88;;;7.43;89.91
76994;BME280;66749;47.406;18.822;2024-03-06T00:07:56;100259.72;;;7.46;90.00
76994;BME280;66749;47.406;18.822;2024-03-06T00:08:28;100259.72;;;7.46;89.71
76994;BME280;66749;47.406;18.822;2024-03-06T00:09:00;100266.75;;;7.44;89.50
76994;BME280;66749;47.406;18.822;2024-03-06T00:09:34;100259.88;;;7.43;89.67
76994;BME280;66749;47.406;18.822;2024-03-06T00:10:06;100257.38;;;7.41;89.44
76994;BME280;66749;47.406;18.822;2024-03-06T00:10:37;100259.88;;;7.43;89.46
76994;BME280;66749;47.406;18.822;2024-03-06T00:11:09;100261.72;;;7.41;89.06
76994;BME280;66749;47.406;18.822;2024-03-06T00:11:41;100260.00;;;7.40;89.29
76994;BME280;66749;47.406;18.822;2024-03-06T00:12:13;100266.03;;;7.40;89.09
76994;BME280;66749;47.406;18.822;2024-03-06T00:12:45;100267.03;;;7.38;89.13
76994;BME280;66749;47.406;18.822;2024-03-06T00:13:17;100252.44;;;7.35;89.21
76994;BME280;66749;47.406;18.822;2024-03-06T00:13:49;100262.00;;;7.35;89.20
76994;BME280;66749;47.406;18.822;2024-03-06T00:14:22;100257.56;;;7.37;89.24
76994;BME280;66749;47.406;18.822;2024-03-06T00:14:54;100254.97;;;7.37;88.96
76994;BME280;66749;47.406;18.822;2024-03-06T00:15:26;100258.31;;;7.39;89.00
76994;BME280;66749;47.406;18.822;2024-03-06T00:15:59;100261.91;;;7.36;89.10
76994;BME280;66749;47.406;18.822;2024-03-06T00:16:34;100258.59;;;7.33;88.86
76994;BME280;66749;47.406;18.822;2024-03-06T00:17:06;100267.38;;;7.30;88.73
76994;BME280;66749;47.406;18.822;2024-03-06T00:17:39;100261.34;;;7.30;88.87
76994;BME280;66749;47.406;18.822;2024-03-06T00:18:10;100258.91;;;7.27;88.93
76994;BME280;66749;47.406;18.822;2024-03-06T00:18:42;100256.34;;;7.25;88.97
76994;BME280;66749;47.406;18.822;2024-03-06T00:19:14;100259.00;;;7.23;88.97
76994;BME280;66749;47.406;18.822;2024-03-06T00:19:46;100253.13;;;7.20;88.84
76994;BME280;66749;47.406;18.822;2024-03-06T00:20:18;100251.56;;;7.16;89.19
76994;BME280;66749;47.406;18.822;2024-03-06T00:20:50;100254.38;;;7.11;89.17
76994;BME280;66749;47.406;18.822;2024-03-06T00:21:22;100254.50;;;7.08;89.38
76994;BME280;66749;47.406;18.822;2024-03-06T00:21:54;100249.31;;;7.08;89.51
76994;BME280;66749;47.406;18.822;2024-03-06T00:22:26;100246.78;;;7.07;89.57
76994;BME280;66749;47.406;18.822;2024-03-06T00:22:58;100251.28;;;7.03;89.62
76994;BME280;66749;47.406;18.822;2024-03-06T00:23:31;100250.41;;;7.03;89.80
76994;BME280;66749;47.406;18.822;2024-03-06T00:24:03;100257.56;;;6.98;89.93
76994;BME280;66749;47.406;18.822;2024-03-06T00:24:38;100247.19;;;6.98;90.03
76994;BME280;66749;47.406;18.822;2024-03-06T00:25:10;100244.53;;;6.99;90.23
76994;BME280;66749;47.406;18.822;2024-03-06T00:25:42;100248.13;;;6.97;90.22
76994;BME280;66749;47.406;18.822;2024-03-06T00:26:13;100253.22;;;6.98;90.18
76994;BME280;66749;47.406;18.822;2024-03-06T00:26:46;100244.94;;;6.90;90.34
76994;BME280;66749;47.406;18.822;2024-03-06T00:27:18;100244.88;;;6.91;90.50
76994;BME280;66749;47.406;18.822;2024-03-06T00:27:50;100249.13;;;6.92;90.40
76994;BME280;66749;47.406;18.822;2024-03-06T00:28:22;100242.41;;;6.88;90.27
76994;BME280;66749;47.406;18.822;2024-03-06T00:28:54;100257.91;;;6.90;90.67
76994;BME280;66749;47.406;18.822;2024-03-06T00:29:26;100247.38;;;6.93;90.34
76994;BME280;66749;47.406;18.822;2024-03-06T00:30:02;100250.81;;;6.93;90.26
76994;BME280;66749;47.406;18.822;2024-03-06T00:30:34;100247.47;;;6.91;90.62
76994;BME280;66749;47.406;18.822;2024-03-06T00:31:06;100253.63;;;6.89;90.75
76994;BME280;66749;47.406;18.822;2024-03-06T00:31:45;100246.75;;;6.88;91.36
76994;BME280;66749;47.406;18.822;2024-03-06T00:32:17;100256.41;;;6.84;91.36
76994;BME280;66749;47.406;18.822;2024-03-06T00:32:50;100252.84;;;6.87;91.58
76994;BME280;66749;47.406;18.822;2024-03-06T00:33:22;100256.34;;;6.86;91.76
76994;BME280;66749;47.406;18.822;2024-03-06T00:33:53;100251.28;;;6.83;91.78
76994;BME280;66749;47.406;18.822;2024-03-06T00:34:25;100247.78;;;6.84;92.03
76994;BME280;66749;47.406;18.822;2024-03-06T00:34:58;100257.13;;;6.88;92.02
76994;BME280;66749;47.406;18.822;2024-03-06T00:35:30;100249.47;;;6.85;91.84
76994;BME280;66749;47.406;18.822;2024-03-06T00:36:03;100250.31;;;6.85;91.87
76994;BME280;66749;47.406;18.822;2024-03-06T00:36:34;100258.94;;;6.86;92.00
76994;BME280;66749;47.406;18.822;2024-03-06T00:37:06;100249.53;;;6.83;92.00
76994;BME280;66749;47.406;18.822;2024-03-06T00:37:38;100253.97;;;6.81;92.26
76994;BME280;66749;47.406;18.822;2024-03-06T00:38:10;100256.47;;;6.83;92.35
76994;BME280;66749;47.406;18.822;2024-03-06T00:38:42;100257.47;;;6.80;92.29
76994;BME280;66749;47.406;18.822;2024-03-06T00:39:14;100250.53;;;6.81;92.32
76994;BME280;66749;47.406;18.822;2024-03-06T00:39:46;100250.63;;;6.78;92.49
76994;BME280;66749;47.406;18.822;2024-03-06T00:40:18;100254.06;;;6.78;92.52
76994;BME280;66749;47.406;18.822;2024-03-06T00:40:50;100251.41;;;6.80;92.47
76994;BME280;66749;47.406;18.822;2024-03-06T00:41:22;100261.66;;;6.83;92.39
76994;BME280;66749;47.406;18.822;2024-03-06T00:41:54;100262.59;;;6.82;92.30
76994;BME280;66749;47.406;18.822;2024-03-06T00:42:26;100259.06;;;6.83;92.20
76994;BME280;66749;47.406;18.822;2024-03-06T00:42:58;100258.31;;;6.81;92.33
76994;BME280;66749;47.406;18.822;2024-03-06T00:43:30;100259.19;;;6.80;92.21
76994;BME280;66749;47.406;18.822;2024-03-06T00:44:03;100257.47;;;6.80;92.11
76994;BME280;66749;47.406;18.822;2024-03-06T00:44:35;100259.19;;;6.80;92.28
76994;BME280;66749;47.406;18.822;2024-03-06T00:45:07;100254.00;;;6.80;92.14
76994;BME280;66749;47.406;18.822;2024-03-06T00:45:39;100259.06;;;6.83;92.09
76994;BME280;66749;47.406;18.822;2024-03-06T00:46:11;100260.91;;;6.81;92.30
76994;BME280;66749;47.406;18.822;2024-03-06T00:46:43;100258.41;;;6.78;92.27
76994;BME280;66749;47.406;18.822;2024-03-06T00:47:15;100243.78;;;6.77;91.81
76994;BME280;66749;47.406;18.822;2024-03-06T00:47:47;100253.16;;;6.79;92.21
76994;BME280;66749;47.406;18.822;2024-03-06T00:48:19;100259.25;;;6.78;91.97
76994;BME280;66749;47.406;18.822;2024-03-06T00:48:53;100255.81;;;6.78;91.95
76994;BME280;66749;47.406;18.822;2024-03-06T00:49:25;100253.16;;;6.79;91.85
76994;BME280;66749;47.406;18.822;2024-03-06T00:49:57;100254.00;;;6.80;91.99
76994;BME280;66749;47.406;18.822;2024-03-06T00:50:29;100259.25;;;6.78;91.63
76994;BME280;66749;47.406;18.822;2024-03-06T00:51:01;100254.16;;;6.77;91.46
76994;BME280;66749;47.406;18.822;2024-03-06T00:51:33;100258.41;;;6.78;91.51
76994;BME280;66749;47.406;18.822;2024-03-06T00:52:19;100252.31;;;6.79;91.31
76994;BME280;66749;47.406;18.822;2024-03-06T00:52:51;100258.31;;;6.81;91.33
76994;BME280;66749;47.406;18.822;2024-03-06T00:53:23;100254.88;;;6.80;91.13
76994;BME280;66749;47.406;18.822;2024-03-06T00:53:55;100258.34;;;6.79;91.09
76994;BME280;66749;47.406;18.822;2024-03-06T00:54:28;100248.97;;;6.77;91.15
76994;BME280;66749;47.406;18.822;2024-03-06T00:55:00;100256.75;;;6.77;91.15
76994;BME280;66749;47.406;18.822;2024-03-06T00:55:32;100256.75;;;6.77;90.90
76994;BME280;66749;47.406;18.822;2024-03-06T00:56:04;100255.81;;;6.78;90.92
76994;BME280;66749;47.406;18.822;2024-03-06T00:56:38;100254.16;;;6.77;90.80
76994;BME280;66749;47.406;18.822;2024-03-06T00:57:10;100257.72;;;6.74;91.10
76994;BME280;66749;47.406;18.822;2024-03-06T00:57:42;100259.47;;;6.74;91.09
76994;BME280;66749;47.406;18.822;2024-03-06T00:58:14;100256.88;;;6.74;91.06
76994;BME280;66749;47.406;18.822;2024-03-06T00:58:46;100250.84;;;6.73;91.05
76994;BME280;66749;47.406;18.822;2024-03-06T00:59:18;100261.22;;;6.73;91.17
76994;BME280;66749;47.406;18.822;2024-03-06T00:59:50;100265.56;;;6.73;91.31
76994;BME280;66749;47.406;18.822;2024-03-06T01:00:22;100261.28;;;6.72;91.10
76994;BME280;66749;47.406;18.822;2024-03-06T01:00:54;100259.59;;;6.71;91.16
76994;BME280;66749;47.406;18.822;2024-03-06T01:01:26;100266.44;;;6.72;91.32
76994;BME280;66749;47.406;18.822;2024-03-06T01:01:59;100262.19;;;6.71;91.27
76994;BME280;66749;47.406;18.822;2024-03-06T01:02:31;100263.03;;;6.71;91.37
76994;BME280;66749;47.406;18.822;2024-03-06T01:03:03;100263.94;;;6.70;91.27
76994;BME280;66749;47.406;18.822;2024-03-06T01:03:34;100267.44;;;6.69;91.29
76994;BME280;66749;47.406;18.822;2024-03-06T01:04:06;100265.69;;;6.70;91.18
76994;BME280;66749;47.406;18.822;2024-03-06T01:04:38;100267.44;;;6.69;91.07
76994;BME280;66749;47.406;18.822;2024-03-06T01:05:10;100264.00;;;6.68;91.28
76994;BME280;66749;47.406;18.822;2024-03-06T01:05:42;100264.91;;;6.67;91.19
76994;BME280;66749;47.406;18.822;2024-03-06T01:06:14;100260.56;;;6.68;90.85
76994;BME280;66749;47.406;18.822;2024-03-06T01:06:46;100257.22;;;6.66;91.20
76994;BME280;66749;47.406;18.822;2024-03-06T01:07:19;100264.06;;;6.67;91.21
76994;BME280;66749;47.406;18.822;2024-03-06T01:07:51;100264.00;;;6.68;91.34
76994;BME280;66749;47.406;18.822;2024-03-06T01:08:23;100257.13;;;6.67;90.99
76994;BME280;66749;47.406;18.822;2024-03-06T01:08:56;100257.25;;;6.64;91.08
76994;BME280;66749;47.406;18.822;2024-03-06T01:09:30;100266.00;;;6.62;91.18
76994;BME280;66749;47.406;18.822;2024-03-06T01:10:01;100265.16;;;6.61;91.62
76994;BME280;66749;47.406;18.822;2024-03-06T01:10:34;100266.78;;;6.64;91.33
76994;BME280;66749;47.406;18.822;2024-03-06T01:11:06;100265.09;;;6.63;91.48
76994;BME280;66749;47.406;18.822;2024-03-06T01:11:38;100264.19;;;6.64;91.56
76994;BME280;66749;47.406;18.822;2024-03-06T01:12:11;100259.13;;;6.61;91.36
76994;BME280;66749;47.406;18.822;2024-03-06T01:12:43;100264.31;;;6.61;91.37
76994;BME280;66749;47.406;18.822;2024-03-06T01:13:18;100257.47;;;6.60;91.25
76994;BME280;66749;47.406;18.822;2024-03-06T01:13:50;100254.78;;;6.61;91.48
76994;BME280;66749;47.406;18.822;2024-03-06T01:14:22;100266.78;;;6.64;91.87
76994;BME280;66749;47.406;18.822;2024-03-06T01:14:54;100262.44;;;6.64;91.45
76994;BME280;66749;47.406;18.822;2024-03-06T01:15:25;100269.34;;;6.65;91.45
76994;BME280;66749;47.406;18.822;2024-03-06T01:15:57;100262.44;;;6.64;91.26
76994;BME280;66749;47.406;18.822;2024-03-06T01:16:29;100265.91;;;6.65;91.23
76994;BME280;66749;47.406;18.822;2024-03-06T01:17:01;100269.38;;;6.64;91.48
76994;BME280;66749;47.406;18.822;2024-03-06T01:17:34;100270.22;;;6.64;91.52
76994;BME280;66749;47.406;18.822;2024-03-06T01:18:06;100269.44;;;6.62;91.36
76994;BME280;66749;47.406;18.822;2024-03-06T01:18:38;100266.84;;;6.62;91.35
76994;BME280;66749;47.406;18.822;2024-03-06T01:19:10;100267.81;;;6.60;91.36
76994;BME280;66749;47.406;18.822;2024-03-06T01:19:42;100272.16;;;6.59;91.69
76994;BME280;66749;47.406;18.822;2024-03-06T01:20:17;100277.34;;;6.59;91.62
76994;BME280;66749;47.406;18.822;2024-03-06T01:20:50;100267.81;;;6.60;91.62
76994;BME280;66749;47.406;18.822;2024-03-06T01:21:21;100269.66;;;6.58;91.65
76994;BME280;66749;47.406;18.822;2024-03-06T01:21:53;100272.25;;;6.58;91.47
76994;BME280;66749;47.406;18.822;2024-03-06T01:22:25;100273.97;;;6.57;91.18
76994;BME280;66749;47.406;18.822;2024-03-06T01:22:58;100268.84;;;6.56;91.53
76994;BME280;66749;47.406;18.822;2024-03-06T01:23:30;100268.06;;;6.54;91.19
76994;BME280;66749;47.406;18.822;2024-03-06T01:24:02;100273.13;;;6.57;91.28
76994;BME280;66749;47.406;18.822;2024-03-06T01:24:35;100265.47;;;6.54;91.06
76994;BME280;66749;47.406;18.822;2024-03-06T01:25:07;100267.09;;;6.56;91.02
76994;BME280;66749;47.406;18.822;2024-03-06T01:25:38;100268.00;;;6.55;91.23
76994;BME280;66749;47.406;18.822;2024-03-06T01:26:10;100272.50;;;6.52;90.87
76994;BME280;66749;47.406;18.822;2024-03-06T01:26:43;100269.97;;;6.50;90.74
76994;BME280;66749;47.406;18.822;2024-03-06T01:27:18;100264.81;;;6.49;90.30
76994;BME280;66749;47.406;18.822;2024-03-06T01:27:50;100273.59;;;6.46;90.24
76994;BME280;66749;47.406;18.822;2024-03-06T01:28:22;100267.72;;;6.41;90.54
76994;BME280;66749;47.406;18.822;2024-03-06T01:28:53;100268.63;;;6.40;90.60
76994;BME280;66749;47.406;18.822;2024-03-06T01:29:25;100264.22;;;6.42;90.52
76994;BME280;66749;47.406;18.822;2024-03-06T01:29:57;100269.41;;;6.42;90.74
76994;BME280;66749;47.406;18.822;2024-03-06T01:30:29;100271.16;;;6.42;90.72
76994;BME280;66749;47.406;18.822;2024-03-06T01:31:01;100269.47;;;6.40;90.88
76994;BME280;66749;47.406;18.822;2024-03-06T01:31:33;100266.88;;;6.40;90.99
76994;BME280;66749;47.406;18.822;2024-03-06T01:32:05;100266.19;;;6.37;90.60
76994;BME280;66749;47.406;18.822;2024-03-06T01:32:37;100258.47;;;6.35;91.14
76994;BME280;66749;47.406;18.822;2024-03-06T01:33:09;100266.13;;;6.38;90.90
76994;BME280;66749;47.406;18.822;2024-03-06T01:33:41;100270.53;;;6.36;91.23
76994;BME280;66749;47.406;18.822;2024-03-06T01:34:13;100261.91;;;6.36;91.43
76994;BME280;66749;47.406;18.822;2024-03-06T01:34:45;100260.22;;;6.35;91.25
76994;BME280;66749;47.406;18.822;2024-03-06T01:35:18;100262.81;;;6.35;91.43
76994;BME280;66749;47.406;18.822;2024-03-06T01:35:50;100268.00;;;6.35;91.73
76994;BME280;66749;47.406;18.822;2024-03-06T01:36:21;100270.59;;;6.35;91.66
76994;BME280;66749;47.406;18.822;2024-03-06T01:36:53;100263.69;;;6.34;91.58
76994;BME280;66749;47.406;18.822;2024-03-06T01:37:25;100270.59;;;6.35;91.71
76994;BME280;66749;47.406;18.822;2024-03-06T01:37:57;100266.25;;;6.35;91.47
76994;BME280;66749;47.406;18.822;2024-03-06T01:38:30;100262.75;;;6.36;92.04
76994;BME280;66749;47.406;18.822;2024-03-06T01:39:02;100271.47;;;6.34;92.15
76994;BME280;66749;47.406;18.822;2024-03-06T01:39:34;100268.03;;;6.33;92.22
76994;BME280;66749;47.406;18.822;2024-03-06T01:40:07;100265.53;;;6.32;92.19
76994;BME280;66749;47.406;18.822;2024-03-06T01:40:43;100270.00;;;6.28;92.52
76994;BME280;66749;47.406;18.822;2024-03-06T01:41:16;100270.84;;;6.29;92.88
76994;BME280;66749;47.406;18.822;2024-03-06T01:41:49;100263.84;;;6.31;92.38
76994;BME280;66749;47.406;18.822;2024-03-06T01:42:21;100269.09;;;6.29;92.49
76994;BME280;66749;47.406;18.822;2024-03-06T01:42:53;100272.44;;;6.31;92.90
76994;BME280;66749;47.406;18.822;2024-03-06T01:43:26;100269.03;;;6.31;92.66
76994;BME280;66749;47.406;18.822;2024-03-06T01:43:57;100275.13;;;6.30;92.99
76994;BME280;66749;47.406;18.822;2024-03-06T01:44:30;100271.63;;;6.31;93.17
76994;BME280;66749;47.406;18.822;2024-03-06T01:45:02;100269.94;;;6.30;93.16
76994;BME280;66749;47.406;18.822;2024-03-06T01:45:35;100270.84;;;6.29;93.05
76994;BME280;66749;47.406;18.822;2024-03-06T01:46:07;100277.78;;;6.28;93.08
76994;BME280;66749;47.406;18.822;2024-03-06T01:46:39;100273.50;;;6.27;93.43
76994;BME280;66749;47.406;18.822;2024-03-06T01:47:10;100277.69;;;6.30;93.12
76994;BME280;66749;47.406;18.822;2024-03-06T01:47:42;100274.34;;;6.28;93.07
76994;BME280;66749;47.406;18.822;2024-03-06T01:48:17;100273.50;;;6.27;93.21
76994;BME280;66749;47.406;18.822;2024-03-06T01:48:49;100277.88;;;6.25;93.50
76994;BME280;66749;47.406;18.822;2024-03-06T01:49:24;100271.84;;;6.25;93.49
76994;BME280;66749;47.406;18.822;2024-03-06T01:50:10;100268.31;;;6.27;93.76
76994;BME280;66749;47.406;18.822;2024-03-06T01:50:42;100275.28;;;6.25;93.53
76994;BME280;66749;47.406;18.822;2024-03-06T01:51:14;100274.38;;;6.26;94.13
76994;BME280;66749;47.406;18.822;2024-03-06T01:51:52;100278.84;;;6.23;94.01
76994;BME280;66749;47.406;18.822;2024-03-06T01:52:24;100270.94;;;6.26;93.85
76994;BME280;66749;47.406;18.822;2024-03-06T01:52:56;100270.91;;;6.27;93.77
76994;BME280;66749;47.406;18.822;2024-03-06T01:53:30;100276.19;;;6.24;93.73
76994;BME280;66749;47.406;18.822;2024-03-06T01:54:03;100279.63;;;6.25;93.71
76994;BME280;66749;47.406;18.822;2024-03-06T01:54:36;100268.50;;;6.23;94.04
76994;BME280;66749;47.406;18.822;2024-03-06T01:55:09;100272.00;;;6.22;93.95
76994;BME280;66749;47.406;18.822;2024-03-06T01:55:42;100267.66;;;6.22;94.04
76994;BME280;66749;47.406;18.822;2024-03-06T01:56:15;100267.72;;;6.21;94.25
76994;BME280;66749;47.406;18.822;2024-03-06T01:56:51;100267.72;;;6.21;94.66
76994;BME280;66749;47.406;18.822;2024-03-06T01:57:23;100279.75;;;6.22;94.16
76994;BME280;66749;47.406;18.822;2024-03-06T01:57:55;100271.00;;;6.24;94.42
76994;BME280;66749;47.406;18.822;2024-03-06T01:58:28;100271.84;;;6.25;94.03
76994;BME280;66749;47.406;18.822;2024-03-06T01:59:01;100266.81;;;6.22;94.17
76994;BME280;66749;47.406;18.822;2024-03-06T01:59:34;100269.41;;;6.22;93.60
76994;BME280;66749;47.406;18.822;2024-03-06T02:00:08;100271.84;;;6.25;93.59
76994;BME280;66749;47.406;18.822;2024-03-06T02:00:45;100270.16;;;6.24;93.77
76994;BME280;66749;47.406;18.822;2024-03-06T02:01:17;100268.63;;;6.20;93.60
76994;BME280;66749;47.406;18.822;2024-03-06T02:01:52;100269.47;;;6.20;93.93
76994;BME280;66749;47.406;18.822;2024-03-06T02:02:25;100274.66;;;6.20;93.57
76994;BME280;66749;47.406;18.822;2024-03-06T02:02:57;100270.31;;;6.21;93.57
76994;BME280;66749;47.406;18.822;2024-03-06T02:03:31;100265.91;;;6.23;93.56
76994;BME280;66749;47.406;18.822;2024-03-06T02:04:04;100277.16;;;6.22;93.70
76994;BME280;66749;47.406;18.822;2024-03-06T02:04:37;100273.75;;;6.21;93.36
76994;BME280;66749;47.406;18.822;2024-03-06T02:05:09;100273.66;;;6.23;93.31
76994;BME280;66749;47.406;18.822;2024-03-06T02:05:41;100272.00;;;6.22;93.36
76994;BME280;66749;47.406;18.822;2024-03-06T02:06:15;100268.56;;;6.21;93.38
76994;BME280;66749;47.406;18.822;2024-03-06T02:06:51;100272.91;;;6.21;93.05
76994;BME280;66749;47.406;18.822;2024-03-06T02:07:24;100270.31;;;6.21;92.85
76994;BME280;66749;47.406;18.822;2024-03-06T02:07:57;100272.94;;;6.19;92.66
76994;BME280;66749;47.406;18.822;2024-03-06T02:08:29;100271.22;;;6.20;92.63
76994;BME280;66749;47.406;18.822;2024-03-06T02:09:01;100275.50;;;6.21;92.86
76994;BME280;66749;47.406;18.822;2024-03-06T02:09:33;100270.31;;;6.21;92.26
76994;BME280;66749;47.406;18.822;2024-03-06T02:10:06;100271.91;;;6.23;92.83
76994;BME280;66749;47.406;18.822;2024-03-06T02:10:38;100272.91;;;6.21;92.73
76994;BME280;66749;47.406;18.822;2024-03-06T02:11:10;100281.50;;;6.21;92.95
76994;BME280;66749;47.406;18.822;2024-03-06T02:11:44;100278.06;;;6.21;93.23
76994;BME280;66749;47.406;18.822;2024-03-06T02:12:16;100271.09;;;6.23;92.97
76994;BME280;66749;47.406;18.822;2024-03-06T02:12:48;100276.19;;;6.24;92.71
76994;BME280;66749;47.406;18.822;2024-03-06T02:13:21;100272.75;;;6.24;93.22
76994;BME280;66749;47.406;18.822;2024-03-06T02:13:53;100272.91;;;6.21;93.36
76994;BME280;66749;47.406;18.822;2024-03-06T02:14:25;100273.84;;;6.18;93.07
76994;BME280;66749;47.406;18.822;2024-03-06T02:14:58;100277.16;;;6.22;93.46
76994;BME280;66749;47.406;18.822;2024-03-06T02:15:29;100281.56;;;6.20;93.61
76994;BME280;66749;47.406;18.822;2024-03-06T02:16:02;100276.44;;;6.18;93.44
76994;BME280;66749;47.406;18.822;2024-03-06T02:16:34;100277.34;;;6.17;93.74
76994;BME280;66749;47.406;18.822;2024-03-06T02:17:06;100284.28;;;6.17;93.85
76994;BME280;66749;47.406;18.822;2024-03-06T02:17:38;100278.31;;;6.15;93.54
76994;BME280;66749;47.406;18.822;2024-03-06T02:18:11;100285.19;;;6.16;93.94
76994;BME280;66749;47.406;18.822;2024-03-06T02:18:53;100278.25;;;6.16;94.11
76994;BME280;66749;47.406;18.822;2024-03-06T02:19:45;100280.00;;;6.16;93.98
76994;BME280;66749;47.406;18.822;2024-03-06T02:20:22;100280.06;;;6.14;94.31
76994;BME280;66749;47.406;18.822;2024-03-06T02:20:54;100281.84;;;6.12;94.22
76994;BME280;66749;47.406;18.822;2024-03-06T02:21:26;100279.22;;;6.14;94.70
76994;BME280;66749;47.406;18.822;2024-03-06T02:21:58;100280.91;;;6.15;94.55
76994;BME280;66749;47.406;18.822;2024-03-06T02:22:30;100280.06;;;6.14;94.55
76994;BME280;66749;47.406;18.822;2024-03-06T02:23:02;100276.50;;;6.17;94.63
76994;BME280;66749;47.406;18.822;2024-03-06T02:23:34;100278.19;;;6.18;94.00
76994;BME280;66749;47.406;18.822;2024-03-06T02:24:06;100277.28;;;6.19;94.05
76994;BME280;66749;47.406;18.822;2024-03-06T02:24:44;100277.28;;;6.19;94.36
76994;BME280;66749;47.406;18.822;2024-03-06T02:25:17;100279.81;;;6.20;93.38
76994;BME280;66749;47.406;18.822;2024-03-06T02:25:49;100280.66;;;6.21;93.85
76994;BME280;66749;47.406;18.822;2024-03-06T02:26:22;100274.66;;;6.20;93.63
76994;BME280;66749;47.406;18.822;2024-03-06T02:26:56;100277.25;;;6.20;93.68
76994;BME280;66749;47.406;18.822;2024-03-06T02:27:28;100272.84;;;6.22;93.80
76994;BME280;66749;47.406;18.822;2024-03-06T02:27:59;100270.16;;;6.24;93.66
76994;BME280;66749;47.406;18.822;2024-03-06T02:28:31;100277.88;;;6.25;93.75
76994;BME280;66749;47.406;18.822;2024-03-06T02:29:03;100273.53;;;6.26;92.96
76994;BME280;66749;47.406;18.822;2024-03-06T02:29:37;100277.78;;;6.28;93.39
76994;BME280;66749;47.406;18.822;2024-03-06T02:30:10;100275.94;;;6.30;92.93
76994;BME280;66749;47.406;18.822;2024-03-06T02:30:43;100278.47;;;6.32;92.91
76994;BME280;66749;47.406;18.822;2024-03-06T02:31:14;100283.66;;;6.32;92.74
76994;BME280;66749;47.406;18.822;2024-03-06T02:31:46;100286.16;;;6.35;92.66
76994;BME280;66749;47.406;18.822;2024-03-06T02:32:20;100284.41;;;6.35;92.38
76994;BME280;66749;47.406;18.822;2024-03-06T02:32:51;100280.97;;;6.35;92.05
76994;BME280;66749;47.406;18.822;2024-03-06T02:33:23;100283.56;;;6.35;92.64
76994;BME280;66749;47.406;18.822;2024-03-06T02:33:55;100285.25;;;6.36;91.97
76994;BME280;66749;47.406;18.822;2024-03-06T02:34:27;100280.81;;;6.38;91.91
76994;BME280;66749;47.406;18.822;2024-03-06T02:35:01;100284.25;;;6.38;91.55
76994;BME280;66749;47.406;18.822;2024-03-06T02:35:34;100284.41;;;6.35;91.66
76994;BME280;66749;47.406;18.822;2024-03-06T02:36:07;100279.22;;;6.35;91.28
76994;BME280;66749;47.406;18.822;2024-03-06T02:36:39;100275.72;;;6.36;91.26
76994;BME280;66749;47.406;18.822;2024-03-06T02:37:11;100280.97;;;6.35;91.46
76994;BME280;66749;47.406;18.822;2024-03-06T02:37:43;100280.06;;;6.36;91.35
76994;BME280;66749;47.406;18.822;2024-03-06T02:38:16;100285.16;;;6.37;91.01
76994;BME280;66749;47.406;18.822;2024-03-06T02:38:48;100278.31;;;6.36;91.06
76994;BME280;66749;47.406;18.822;2024-03-06T02:39:20;100283.47;;;6.36;91.21
76994;BME280;66749;47.406;18.822;2024-03-06T02:39:52;100274.97;;;6.33;90.90
76994;BME280;66749;47.406;18.822;2024-03-06T02:40:24;100282.88;;;6.30;90.78
76994;BME280;66749;47.406;18.822;2024-03-06T02:40:56;100278.63;;;6.29;91.20
76994;BME280;66749;47.406;18.822;2024-03-06T02:41:28;100280.28;;;6.30;91.12
76994;BME280;66749;47.406;18.822;2024-03-06T02:42:00;100282.94;;;6.28;91.18
76994;BME280;66749;47.406;18.822;2024-03-06T02:42:32;100276.13;;;6.26;90.87
76994;BME280;66749;47.406;18.822;2024-03-06T02:43:04;100278.78;;;6.24;90.86
76994;BME280;66749;47.406;18.822;2024-03-06T02:43:36;100283.97;;;6.24;90.73
76994;BME280;66749;47.406;18.822;2024-03-06T02:44:08;100280.53;;;6.24;91.14
76994;BME280;66749;47.406;18.822;2024-03-06T02:44:40;100284.03;;;6.23;91.14
76994;BME280;66749;47.406;18.822;2024-03-06T02:45:12;100283.13;;;6.24;91.35
76994;BME280;66749;47.406;18.822;2024-03-06T02:45:45;100284.81;;;6.25;90.88
76994;BME280;66749;47.406;18.822;2024-03-06T02:46:17;100285.72;;;6.24;90.96
76994;BME280;66749;47.406;18.822;2024-03-06T02:46:48;100278.84;;;6.23;91.06
76994;BME280;66749;47.406;18.822;2024-03-06T02:47:20;100286.63;;;6.23;91.34
76994;BME280;66749;47.406;18.822;2024-03-06T02:47:52;100281.38;;;6.24;91.23
76994;BME280;66749;47.406;18.822;2024-03-06T02:48:24;100285.78;;;6.22;91.18
76994;BME280;66749;47.406;18.822;2024-03-06T02:48:56;100287.53;;;6.22;90.94
76994;BME280;66749;47.406;18.822;2024-03-06T02:49:28;100281.50;;;6.21;91.20
76994;BME280;66749;47.406;18.822;2024-03-06T02:50:00;100279.81;;;6.20;90.94
76994;BME280;66749;47.406;18.822;2024-03-06T02:50:32;100283.28;;;6.19;91.46